• Join FlightAware (Why Join?)
  • Login
  • US Flag 
09:49PM EDT


 

Airport Tracker/Info


-or-


 

Live Flight TrackerFlight Track Log ✈ EGF4090 ✈ 05-May-2013 ✈ KORD - KLIT

Flight Track Log - Related Links

Times and Time Zones

All times are in EDT time to prevent confusion due to time zone crossing. See the EGF4090 flight status page for this flight to view local times or setup timezone preferences in your user account.

Time Position Orientation Groundspeed Altitude Reporting Facility
EDT Latitude Longitude Course Direction KTS MPH feet Rate Location/Type
11:11PM 42.0167 -87.9000 194° South 230 265 2,800  Level Chicago TRACON
11:12PM 41.7885 -88.0352 191° South  Level Estimated
11:12PM 41.9500 -87.8833 169° South 264 304 4,500  Level Chicago TRACON
11:13PM 41.6919 -88.0991 192° South  Level Estimated
11:13PM 41.8833 -87.8833 180° South 252 290 5,300  Level Chicago TRACON
11:14PM 41.5953 -88.1629 189° South  Level Estimated
11:14PM 41.8303 -87.9014 194° South 252 290 7,100  Level Chicago Center
11:15PM 41.5034 -88.0876 148° Southeast  Level FlightAware Approximate
11:15PM 41.7581 -87.9244 193° South 266 306 9,100  Level Chicago Center
11:16PM 41.4074 -88.1527 194° South  Level Estimated
11:16PM 41.6814 -87.9475 193° South 281 323 11,000  Level Chicago Center
11:17PM 41.5994 -87.9722 193° South 299 344 12,800 1,380 Climbing Chicago Center
11:18PM 41.5114 -87.9989 193° South 319 367 13,900 1,140 Climbing Chicago Center
11:19PM 41.4014 -88.0331 193° South 350 403 15,200 1,140 Climbing Chicago Center
11:20PM 41.3103 -88.0628 194° South 357 411 16,300 1,020 Climbing Chicago Center
11:21PM 41.2108 -88.0961 194° South 364 419 17,300 900 Climbing Chicago Center
11:22PM 41.1072 -88.1253 192° South 378 435 18,200 900 Climbing Chicago Center
11:23PM 41.0050 -88.1703 198° South 392 451 19,200 960 Climbing Chicago Center
11:24PM 40.9081 -88.2417 209° Southwest 400 460 20,200 960 Climbing Chicago Center
11:25PM 40.8072 -88.3133 208° Southwest 410 472 21,200 960 Climbing Chicago Center
11:26PM 40.7058 -88.3847 208° Southwest 413 475 22,200 1,020 Climbing Chicago Center
11:27PM 40.5811 -88.4725 208° Southwest 422 486 23,300 1,020 Climbing Chicago Center
11:28PM 40.4769 -88.5450 208° Southwest 425 489 24,300 960 Climbing Chicago Center
11:29PM 40.3808 -88.6131 208° Southwest 427 491 25,300 900 Climbing Chicago Center
11:30PM 40.2744 -88.6872 208° Southwest 430 495 26,200 900 Climbing Chicago Center
11:31PM 40.1683 -88.7608 208° Southwest 430 495 27,200 960 Climbing Chicago Center
11:32PM 40.0614 -88.8333 207° Southwest 426 490 28,200 960 Climbing Kansas City Center
11:33PM 39.9558 -88.9056 208° Southwest 427 491 29,200 840 Climbing Kansas City Center
11:34PM 39.8519 -88.9775 208° Southwest 423 487 30,000 660 Climbing Kansas City Center
11:35PM 39.7442 -89.0525 208° Southwest 433 498 30,600 1,020 Climbing Kansas City Center
11:36PM 39.6375 -89.1242 207° Southwest 432 497 32,100 1,320 Climbing Kansas City Center
11:37PM 39.5328 -89.1956 208° Southwest 425 489 33,300 900 Climbing Kansas City Center
11:38PM 39.4183 -89.2739 208° Southwest 428 493 34,000 300 Climbing Kansas City Center
11:39PM 39.3081 -89.3469 207° Southwest 439 505 34,000  Level Kansas City Center
11:40PM 39.1944 -89.4239 208° Southwest 455 524 34,000  Level Kansas City Center
11:41PM 39.0753 -89.5058 208° Southwest 455 524 34,000  Level Kansas City Center
11:42PM 38.9644 -89.5794 207° Southwest 451 519 34,000  Level Kansas City Center
11:43PM 38.8528 -89.6533 207° Southwest 451 519 34,000  Level Kansas City Center
11:44PM 38.7467 -89.7228 207° Southwest 453 521 34,000  Level Kansas City Center
11:45PM 38.6353 -89.7961 207° Southwest 449 517 34,000  Level Kansas City Center
11:46PM 38.5247 -89.8692 207° Southwest 446 513 34,000  Level Kansas City Center
11:47PM 38.4103 -89.9431 207° Southwest 452 520 34,000  Level Kansas City Center
11:48PM 38.2958 -90.0181 207° Southwest 457 526 34,000  Level Kansas City Center
11:49PM 38.1814 -90.0919 207° Southwest 458 527 34,000  Level Kansas City Center
11:50PM 38.0675 -90.1661 207° Southwest 459 528 34,000  Level Kansas City Center
11:51PM 37.9519 -90.2397 207° Southwest 462 532 34,000  Level Kansas City Center
11:52PM 37.8372 -90.3147 207° Southwest 462 532 34,000  Level Kansas City Center
11:53PM 37.7217 -90.3906 207° Southwest 466 536 34,000  Level Kansas City Center
11:54PM 37.6061 -90.4633 207° Southwest 466 536 34,000  Level Kansas City Center
11:55PM 37.4903 -90.5375 207° Southwest 467 537 34,000  Level Kansas City Center
11:56PM 37.3517 -90.6256 207° Southwest 466 536 34,000  Level Kansas City Center
11:57PM 37.2383 -90.6986 207° Southwest 465 535 34,000  Level Kansas City Center
11:58PM 37.1208 -90.7731 207° Southwest 467 537 34,000  Level Memphis Center
11:59PM 37.0061 -90.8478 207° Southwest 467 537 34,000  Level Memphis Center
12:00AM 36.8889 -90.9197 206° Southwest 472 543 34,000 -420 Level Memphis Center
12:01AM 36.7803 -90.9889 207° Southwest 465 535 33,200 -1,260 Descending Memphis Center
12:02AM 36.6675 -91.0581 206° Southwest 455 524 31,500 -1,620 Descending Memphis Center
12:03AM 36.5650 -91.1217 206° Southwest 450 518 30,000 -1,800 Descending Memphis Center
12:04AM 36.4394 -91.1978 206° Southwest 463 533 27,900 -2,040 Descending Memphis Center
12:05AM 36.3222 -91.2689 206° Southwest 468 539 26,000 -1,860 Descending Memphis Center
12:06AM 36.2047 -91.3394 206° Southwest 473 544 24,200 -1,860 Descending Memphis Center
12:07AM 36.0939 -91.4075 206° Southwest 461 531 22,300 -1,920 Descending Memphis Center
12:08AM 35.9869 -91.4728 206° Southwest 454 522 20,400 -1,800 Descending Memphis Center
12:09AM 35.8944 -91.5331 208° Southwest 438 504 18,700 -1,800 Descending Memphis Center
12:10AM 35.7897 -91.5931 205° Southwest 424 488 16,800 -1,740 Descending Memphis Center
12:11AM 35.6931 -91.6531 207° Southwest 410 472 15,300 -1,500 Descending Memphis Center
12:12AM 35.5944 -91.7128 206° Southwest 400 460 13,800 -1,620 Descending Memphis Center
12:13AM 35.5525 -91.7375 206° Southwest 385 443 13,200 -1,320 Descending Memphis Center
12:13AM 35.5000 -91.7700 207° Southwest 394 453 12,500 -1,320 Descending Memphis Center
12:14AM 35.4644 -91.7922 207° Southwest 370 426 11,900 -1,320 Descending Memphis Center
12:14AM 35.4119 -91.8219 205° Southwest 376 433 11,200 -1,200 Descending Memphis Center
12:15AM 35.3742 -91.8442 206° Southwest 336 387 10,700 -1,320 Descending Memphis Center
12:15AM 35.3278 -91.8636 199° South 347 399 9,900 -1,500 Descending Memphis Center
12:16AM 35.2944 -91.8808 203° Southwest 310 357 9,200 -1,440 Descending Memphis Center
12:16AM 35.2503 -91.9031 202° Southwest 324 373 8,500 -1,380 Descending Memphis Center
12:17AM 35.2144 -91.9200 201° Southwest 291 335 7,800 -1,500 Descending Memphis Center
12:17AM 35.1747 -91.9397 202° Southwest 312 359 7,000 -1,500 Descending Memphis Center
12:18AM 35.1411 -91.9594 206° Southwest 277 319 6,300 -1,320 Descending Memphis Center
12:18AM 35.1053 -91.9764 201° Southwest 289 333 5,700 -1,320 Descending Memphis Center
12:19AM 35.0719 -91.9911 200° South 269 310 5,000 -1,320 Descending Memphis Center
12:19AM 35.0339 -92.0106 203° Southwest 283 326 4,400 -1,140 Descending Memphis Center
12:20AM 34.9983 -92.0278 202° Southwest 276 318 3,900 -1,020 Descending Memphis Center
12:20AM 34.9625 -92.0447 201° Southwest 278 320 3,400 -900 Descending Memphis Center
12:21AM 34.9289 -92.0617 202° Southwest 271 312 3,000 -900 Descending Memphis Center
12:21AM 34.8975 -92.0764 201° Southwest 270 311 2,500 -900 Descending Memphis Center
12:22AM 34.8617 -92.0958 204° Southwest 249 287 2,100 -540 Descending Memphis Center
12:22AM 34.8367 -92.1056 198° South 253 291 2,000 -120 Descending Memphis Center
12:23AM 34.8114 -92.1200 205° Southwest 193 222 2,000 -120 Level Memphis Center
12:23AM 34.7903 -92.1322 205° Southwest 219 252 1,900 -540 Descending Memphis Center
12:24AM 34.7714 -92.1522 221° Southwest 146 168 1,500 -840 Descending Memphis Center
12:24AM 34.7586 -92.1694 228° Southwest 184 212 1,100 -720 Descending Memphis Center
12:25AM 34.7458 -92.1869 228° Southwest 138 159 800 -120 Descending Memphis Center
12:25AM 34.7081 -92.2014 197° South 177 204 1,000 300 Climbing Memphis Center